LEBZLETO

Guest
Details From LEBZ - Talavera La Real
To LETO - Torrejon
Flight Number -
Tags Generated
Created
Modified
Stats Distance 183 nm / 338 km
Max Altitude 0 ft / 0 m
Waypoints 2
Social Downloads 0
Likes 0
Share VATSIM

Download

Looking for another format? Having issues loading an existing format? Contact us
Advertisement - Login to hide

Notes

Generated

Route

LEBZ LETO

ID Type Via Altitude Latitude Longitude Leg Dist Tot Dist Heading (true) Name
O LEBZ APT - 0 ft / 0 m 38.89875˚ -6.83462˚ - 0 nm - -
O LETO APT - 0 ft / 0 m 40.48477˚ -3.46070˚ 182 nm 182 nm 58° / 60° -

Altitude Profile

Advertisement - Login to hide

Weather


0- 5 10 15 20 25 30 35+ Temperature / ° C

Clouds and Precipitation
Forecast for 2018-05-22 12:00 UTC. Updated 5 hours ago

Ground ~20,000 ft ~40,000 ft Winds

LEBZ

Details ICAO LEBZ (BJZ)
Name Talavera La Real
Region Spain
Timezone Europe/Madrid (UTC+2.0)
Stats Elevation 609 ft / 186 m (AMSL)
Location 38.891271° -6.821256°
Runways 1
Magnetic Variation 1.566° W

METAR

LEBZ 221600Z 27006KT 210V340 9999 FEW048 25/13 Q1013

Decode

TAF

TAF LEBZ 221100Z 2212/2312 25005KT CAVOK TX25/2216Z TN14/2305Z

Decode

Departure Runways

ID Width Length Bearing (true) Bearing (mag) Surface Threshold Offset Overrun Length
13 197 ft / 60 m 9,350 ft / 2,850 m 125.72° 127.29° Asphalt 0 ft / 0 m 980 ft / 299 m
31 197 ft / 60 m 9,350 ft / 2,850 m 305.74° 307.31° Asphalt 0 ft / 0 m 980 ft / 299 m

LETO

Details ICAO LETO (TOJ)
Name Torrejon
Region Spain
Timezone Europe/Madrid (UTC+2.0)
Stats Elevation 2,025 ft / 617 m (AMSL)
Location 40.496746° -3.445870°
Runways 1
Magnetic Variation 0.601° W

METAR

LETO 221600Z 07006KT 040V110 9999 FEW050TCU 21/12 Q1015 NOSIG

Decode

TAF

TAF AMD LETO 221321Z 2213/2312 VRB05KT 9999 FEW040 TX25/2215Z TN13/2306Z TEMPO 2215/2216 29012KT PROB30 TEMPO 2215/2216 29012G22KT PROB40 TEMPO 2213/2218 FEW040TCU

Decode

Destination Runways

ID Width Length Bearing (true) Bearing (mag) Surface Threshold Offset Overrun Length
05 217 ft / 66 m 12,004 ft / 3,659 m 43.28° 43.88° Asphalt 0 ft / 0 m 2,739 ft / 835 m
23 217 ft / 66 m 12,004 ft / 3,659 m 223.30° 223.90° Asphalt 0 ft / 0 m 1,066 ft / 325 m

Approach Navaids

Runway Type Ident Frequency Range Bearing (true) Bearing (mag) Slope Elevation
23 Localiser ITJA 109.50 MHz 18 nm / 33 km 223.26° 223.86° - 2,025 ft / 617 m (AMSL)
23 Glidescope ITJA 109.50 MHz 10 nm / 19 km 223.29° 223.89° 3.00° 2,025 ft / 617 m (AMSL)
23 DME ITJA 109.50 MHz 18 nm / 33 km - - - 2,011 ft / 613 m (AMSL)